createdAt,value
2022-11-29T00:04:21.420Z,4.55
2022-11-29T00:09:23.195Z,4.97
2022-11-29T00:14:27.008Z,4.90
2022-11-29T00:19:29.216Z,4.60
2022-11-29T00:24:32.392Z,4.68
2022-11-29T00:29:34.148Z,4.85
2022-11-29T00:34:36.627Z,4.43
2022-11-29T00:39:38.485Z,4.88
2022-11-29T00:44:40.349Z,4.43
2022-11-29T00:49:42.242Z,4.10
2022-11-29T00:54:44.257Z,4.47
2022-11-29T00:59:46.137Z,3.92
2022-11-29T01:04:47.890Z,4.50
2022-11-29T01:09:49.694Z,4.35
2022-11-29T01:14:51.480Z,4.25
2022-11-29T01:19:53.456Z,4.22
2022-11-29T01:24:55.203Z,4.82
2022-11-29T01:29:57.147Z,4.88
2022-11-29T01:34:58.945Z,4.18
2022-11-29T01:40:00.712Z,4.50
2022-11-29T01:45:24.707Z,3.92
2022-11-29T01:50:26.498Z,4.07
2022-11-29T01:55:29.034Z,3.90
2022-11-29T02:00:31.055Z,3.63
2022-11-29T02:05:33.196Z,3.92
2022-11-29T02:10:53.101Z,3.65
2022-11-29T02:16:13.484Z,4.25
2022-11-29T02:21:50.094Z,3.67
2022-11-29T02:27:02.838Z,3.05
2022-11-29T02:32:23.040Z,3.88
2022-11-29T02:37:42.803Z,3.40
2022-11-29T02:43:15.381Z,3.50
2022-11-29T02:48:52.467Z,3.67
2022-11-29T02:54:04.708Z,3.35
2022-11-29T02:59:21.623Z,3.50
2022-11-29T03:04:50.111Z,3.30
2022-11-29T03:10:09.660Z,3.78
2022-11-29T03:15:19.714Z,3.60
2022-11-29T03:20:58.985Z,4.10
2022-11-29T03:26:32.293Z,4.03
2022-11-29T03:32:09.359Z,3.97
2022-11-29T03:37:57.864Z,4.35
2022-11-29T03:43:09.381Z,4.18
2022-11-29T03:48:17.141Z,3.90
2022-11-29T03:53:56.046Z,4.50
2022-11-29T03:59:10.048Z,4.38
2022-11-29T04:04:45.988Z,4.38
2022-11-29T04:10:17.315Z,4.13
2022-11-29T04:15:19.230Z,5.03
2022-11-29T04:20:48.706Z,5.07
2022-11-29T04:26:11.708Z,5.05
2022-11-29T04:31:47.312Z,4.95
2022-11-29T04:37:10.251Z,6.25
2022-11-29T04:42:53.769Z,6.05
2022-11-29T04:47:59.126Z,6.15
2022-11-29T04:53:28.505Z,6.55
2022-11-29T04:59:07.155Z,6.10
2022-11-29T05:04:17.953Z,5.78
2022-11-29T05:09:35.120Z,5.75
2022-11-29T05:14:48.759Z,6.10
2022-11-29T05:20:03.743Z,5.20
2022-11-29T05:25:34.323Z,5.00
2022-11-29T05:31:13.254Z,4.05
2022-11-29T05:36:22.108Z,4.10
2022-11-29T05:41:45.560Z,4.70
2022-11-29T05:46:54.692Z,4.85
2022-11-29T05:52:25.415Z,5.55
2022-11-29T05:57:55.339Z,5.60
2022-11-29T06:03:06.314Z,6.72
2022-11-29T06:08:18.721Z,5.70
2022-11-29T06:14:02.031Z,5.85
2022-11-29T06:19:21.456Z,5.32
2022-11-29T06:24:56.720Z,6.13
2022-11-29T06:30:26.265Z,5.85
2022-11-29T06:36:05.965Z,6.30
2022-11-29T06:41:17.112Z,7.65
2022-11-29T06:46:39.910Z,9.25
2022-11-29T06:51:51.959Z,6.25
2022-11-29T06:57:12.723Z,6.32
2022-11-29T07:02:30.679Z,7.28
2022-11-29T07:12:36.100Z,7.75
2022-11-29T07:18:04.947Z,8.13
2022-11-29T07:23:27.880Z,7.85
2022-11-29T07:28:50.664Z,7.25
2022-11-29T07:34:04.878Z,6.50
2022-11-29T07:39:12.712Z,6.53
2022-11-29T07:44:55.008Z,8.93
2022-11-29T07:49:56.779Z,10.10
2022-11-29T07:54:58.507Z,11.75
2022-11-29T08:00:00.448Z,11.75
2022-11-29T08:05:03.888Z,13.65
2022-11-29T08:10:12.475Z,24.42
2022-11-29T08:15:14.547Z,14.18
2022-11-29T08:20:17.035Z,16.67
2022-11-29T08:25:18.843Z,12.63
2022-11-29T08:30:23.553Z,16.30
2022-11-29T08:35:25.373Z,13.68
2022-11-29T08:40:27.163Z,14.88
2022-11-29T08:45:29.015Z,14.73
2022-11-29T08:50:30.773Z,14.63
2022-11-29T08:55:40.075Z,13.68
2022-11-29T09:00:44.239Z,15.05
2022-11-29T09:05:46.144Z,14.70
2022-11-29T09:10:48.328Z,18.60
2022-11-29T09:15:50.174Z,16.23
2022-11-29T09:20:51.935Z,26.65
2022-11-29T09:25:54.488Z,17.00
2022-11-29T09:30:56.294Z,17.52
2022-11-29T09:35:58.832Z,21.38
2022-11-29T09:41:14.572Z,19.48
2022-11-29T09:46:22.409Z,28.00
2022-11-29T09:51:59.203Z,19.95
2022-11-29T09:57:10.345Z,18.25
2022-11-29T10:02:21.710Z,17.15
2022-11-29T10:07:30.133Z,22.45
2022-11-29T10:12:39.541Z,19.13
2022-11-29T10:18:00.102Z,18.23
2022-11-29T10:23:20.377Z,18.08
2022-11-29T10:28:26.346Z,15.77
2022-11-29T10:33:36.525Z,15.68
2022-11-29T10:38:38.309Z,13.05
2022-11-29T10:43:40.248Z,15.05
2022-11-29T10:48:42.298Z,14.30
2022-11-29T10:53:45.259Z,15.65
2022-11-29T10:59:03.418Z,15.07
2022-11-29T11:04:08.471Z,14.43
2022-11-29T11:09:32.383Z,15.63
2022-11-29T11:14:38.738Z,14.20
2022-11-29T11:19:40.603Z,14.82
2022-11-29T11:24:44.928Z,14.80
2022-11-29T11:29:46.960Z,16.00
2022-11-29T11:34:54.135Z,16.23
2022-11-29T11:40:01.012Z,18.00
2022-11-29T11:45:10.746Z,18.33
2022-11-29T11:50:24.987Z,17.52
2022-11-29T11:55:39.684Z,15.20
2022-11-29T12:01:04.108Z,15.63
2022-11-29T12:06:24.841Z,17.73
2022-11-29T12:11:30.998Z,17.08
2022-11-29T12:16:37.237Z,16.65
2022-11-29T12:21:43.671Z,17.80
2022-11-29T12:27:00.921Z,18.25
2022-11-29T12:32:20.883Z,17.00
2022-11-29T12:37:35.976Z,17.00
2022-11-29T12:43:19.824Z,17.08
2022-11-29T12:48:48.859Z,18.02
2022-11-29T12:54:10.332Z,17.08
2022-11-29T12:59:28.498Z,18.50
2022-11-29T13:04:56.481Z,17.90
2022-11-29T13:10:22.849Z,18.98
2022-11-29T13:15:36.232Z,19.77
2022-11-29T13:20:44.036Z,20.40
2022-11-29T13:30:54.926Z,17.65
2022-11-29T13:36:20.740Z,18.45
2022-11-29T13:41:43.242Z,20.98
2022-11-29T13:47:03.490Z,19.40
2022-11-29T13:52:06.814Z,19.52
2022-11-29T13:57:09.984Z,20.45
2022-11-29T14:02:28.593Z,20.20
2022-11-29T14:07:30.586Z,18.00
2022-11-29T14:12:48.868Z,19.05
2022-11-29T14:17:57.842Z,20.52
2022-11-29T14:23:15.396Z,19.95
2022-11-29T14:28:17.115Z,19.83
2022-11-29T14:33:38.487Z,20.45
2022-11-29T14:38:49.375Z,23.13
2022-11-29T14:44:03.655Z,20.08
2022-11-29T14:49:05.707Z,23.00
2022-11-29T14:54:19.565Z,21.45
2022-11-29T14:59:48.434Z,22.38
2022-11-29T15:04:53.011Z,20.23
2022-11-29T15:09:59.488Z,20.60
2022-11-29T15:15:13.164Z,19.30
2022-11-29T15:20:25.043Z,18.85
2022-11-29T15:25:31.864Z,17.00
2022-11-29T15:30:38.421Z,23.07
2022-11-29T15:35:52.026Z,19.00
2022-11-29T15:40:55.247Z,16.95
2022-11-29T15:45:58.508Z,19.50
2022-11-29T15:51:09.096Z,22.67
2022-11-29T15:56:28.477Z,20.30
2022-11-29T16:01:30.580Z,20.63
2022-11-29T16:06:42.558Z,20.90
2022-11-29T16:11:45.270Z,19.75
2022-11-29T16:16:50.121Z,18.58
2022-11-29T16:22:11.420Z,16.92
2022-11-29T16:27:14.202Z,18.00
2022-11-29T16:32:33.627Z,18.85
2022-11-29T16:37:46.306Z,17.20
2022-11-29T16:43:03.453Z,17.45
2022-11-29T16:48:28.874Z,22.47
2022-11-29T16:53:40.480Z,20.50
2022-11-29T16:59:25.236Z,26.75
2022-11-29T17:04:09.216Z,32.35
2022-11-29T17:09:23.183Z,34.70
2022-11-29T17:14:25.131Z,36.33
2022-11-29T17:19:28.988Z,34.83
2022-11-29T17:24:30.889Z,32.63
2022-11-29T17:29:33.051Z,35.72
2022-11-29T17:34:35.205Z,34.22
2022-11-29T17:39:37.027Z,35.00
2022-11-29T17:44:38.893Z,31.67
2022-11-29T17:49:40.735Z,32.08
2022-11-29T17:54:42.529Z,30.25
2022-11-29T17:59:44.397Z,32.28
2022-11-29T18:04:46.316Z,34.67
2022-11-29T18:09:48.961Z,30.20
2022-11-29T18:14:52.057Z,33.08
2022-11-29T18:19:53.932Z,35.03
2022-11-29T18:25:15.835Z,32.55
2022-11-29T18:30:17.541Z,31.23
2022-11-29T18:35:19.407Z,31.50
2022-11-29T18:40:21.301Z,31.42
2022-11-29T18:45:23.147Z,30.70
2022-11-29T18:50:25.447Z,29.90
2022-11-29T18:55:28.100Z,28.98
2022-11-29T19:00:30.764Z,33.78
2022-11-29T19:05:33.058Z,30.25
2022-11-29T19:10:38.553Z,29.70
2022-11-29T19:15:40.900Z,30.27
2022-11-29T19:20:43.348Z,30.13
2022-11-29T19:25:45.849Z,26.65
2022-11-29T19:30:55.290Z,28.40
2022-11-29T19:36:03.392Z,29.83
2022-11-29T19:41:11.364Z,38.08
2022-11-29T19:46:17.228Z,31.50
2022-11-29T19:51:20.590Z,26.05
2022-11-29T19:56:24.360Z,23.40
2022-11-29T20:01:37.859Z,25.88
2022-11-29T20:06:44.596Z,24.77
2022-11-29T20:11:47.139Z,21.05
2022-11-29T20:16:51.913Z,21.85
2022-11-29T20:21:54.470Z,20.25
2022-11-29T20:26:56.877Z,20.63
2022-11-29T20:31:59.540Z,25.73
2022-11-29T20:37:15.380Z,27.35
2022-11-29T20:42:31.810Z,27.75
2022-11-29T20:47:51.403Z,26.75
2022-11-29T20:53:16.794Z,26.40
2022-11-29T20:58:20.745Z,27.23
2022-11-29T21:03:24.123Z,28.35
2022-11-29T21:08:26.869Z,28.63
2022-11-29T21:13:29.033Z,31.45
2022-11-29T21:18:31.944Z,30.90
2022-11-29T21:23:52.124Z,31.40
2022-11-29T21:29:15.006Z,32.17
2022-11-29T21:34:17.162Z,32.08
2022-11-29T21:39:18.907Z,31.08
2022-11-29T21:44:23.016Z,31.20
2022-11-29T21:49:24.951Z,33.20
2022-11-29T21:54:28.203Z,32.75
2022-11-29T21:59:29.927Z,33.15
2022-11-29T22:04:31.660Z,33.45
2022-11-29T22:09:33.455Z,37.17
2022-11-29T22:14:35.173Z,38.67
2022-11-29T22:19:36.900Z,34.45
2022-11-29T22:24:38.736Z,35.17
2022-11-29T22:29:40.463Z,33.50
2022-11-29T22:34:42.210Z,35.80
2022-11-29T22:39:43.957Z,32.63
2022-11-29T22:44:45.858Z,31.85
2022-11-29T22:49:49.357Z,31.15
2022-11-29T22:54:51.091Z,28.85
2022-11-29T22:59:52.855Z,30.73
2022-11-29T23:04:54.583Z,36.17
2022-11-29T23:09:56.412Z,35.00
2022-11-29T23:14:58.420Z,35.08
2022-11-29T23:20:00.364Z,31.42
2022-11-29T23:25:02.092Z,32.72
2022-11-29T23:30:04.336Z,31.15
2022-11-29T23:35:06.295Z,30.63
2022-11-29T23:40:08.784Z,29.75
2022-11-29T23:45:10.748Z,31.42
2022-11-29T23:50:12.793Z,34.17
2022-11-29T23:55:14.799Z,33.95
